createdAt,value
2023-10-19T00:12:39.098Z,12.92
2023-10-19T00:27:31.613Z,13.52
2023-10-19T00:42:26.409Z,12.81
2023-10-19T00:57:21.409Z,12.52
2023-10-19T01:12:23.381Z,12.63
2023-10-19T01:27:19.990Z,12.77
2023-10-19T01:42:11.742Z,12.77
2023-10-19T01:57:04.270Z,11.46
2023-10-19T02:11:57.311Z,11.83
2023-10-19T02:56:34.232Z,10.88
2023-10-19T03:11:27.127Z,11.72
2023-10-19T03:41:25.703Z,11.30
2023-10-19T03:56:19.038Z,11.46
2023-10-19T04:11:14.463Z,11.34
2023-10-19T04:26:12.341Z,10.51
2023-10-19T04:41:09.627Z,10.71
2023-10-19T04:56:05.587Z,10.88
2023-10-19T05:10:58.887Z,10.93
2023-10-19T05:25:50.539Z,10.36
2023-10-19T05:55:34.376Z,10.73
2023-10-19T06:10:26.492Z,11.37
2023-10-19T06:25:18.897Z,11.37
2023-10-19T06:55:06.330Z,12.02
2023-10-19T07:10:01.741Z,12.01
2023-10-19T07:24:54.694Z,11.33
2023-10-19T07:39:47.219Z,12.58
2023-10-19T07:54:40.577Z,13.29
2023-10-19T08:39:30.422Z,11.40
2023-10-19T08:54:23.845Z,10.72
2023-10-19T09:24:15.833Z,10.57
2023-10-19T09:39:07.953Z,7.67
2023-10-19T09:54:01.361Z,6.89
2023-10-19T10:08:54.275Z,7.07
2023-10-19T10:23:49.476Z,6.77
2023-10-19T10:38:44.048Z,7.97
2023-10-19T10:53:36.221Z,7.74
2023-10-19T11:08:28.380Z,9.07
2023-10-19T11:23:21.312Z,10.44
2023-10-19T11:38:13.818Z,10.52
2023-10-19T11:53:06.868Z,11.43
2023-10-19T12:08:00.163Z,11.41
2023-10-19T12:22:53.267Z,10.07
2023-10-19T12:37:47.220Z,10.29
2023-10-19T12:52:39.761Z,11.41
2023-10-19T13:07:33.899Z,11.18
2023-10-19T13:22:28.077Z,11.49
2023-10-19T13:37:20.613Z,10.82
2023-10-19T13:52:13.134Z,12.51
2023-10-19T14:07:09.626Z,13.97
2023-10-19T14:22:02.357Z,14.47
2023-10-19T14:36:55.722Z,12.51
2023-10-19T14:51:48.449Z,11.86
2023-10-19T16:21:10.390Z,11.59
2023-10-19T18:50:36.156Z,11.08
2023-10-19T19:35:17.467Z,9.34
2023-10-19T19:50:10.368Z,6.69
2023-10-19T20:05:02.334Z,7.47
2023-10-19T20:19:55.494Z,5.61
2023-10-19T20:34:47.666Z,4.92
2023-10-19T21:04:51.134Z,6.36
2023-10-19T21:19:42.893Z,6.23
2023-10-19T21:34:35.671Z,6.47
2023-10-19T21:49:28.803Z,5.72
2023-10-19T22:04:20.530Z,5.27
2023-10-19T22:19:12.196Z,3.58
2023-10-19T22:34:04.063Z,6.02
2023-10-19T22:48:56.665Z,5.18
2023-10-19T23:03:49.611Z,4.36
2023-10-19T23:18:43.025Z,3.40
2023-10-19T23:33:35.916Z,3.53
2023-10-19T23:48:27.680Z,2.62
